createdAt,value
2022-09-01T00:13:58.021Z,13.56
2022-09-01T00:17:31.810Z,13.48
2022-09-01T00:21:05.741Z,13.44
2022-09-01T00:24:39.702Z,13.42
2022-09-01T00:38:04.962Z,13.45
2022-09-01T00:41:51.210Z,13.34
2022-09-01T00:45:25.471Z,13.32
2022-09-01T00:58:47.681Z,13.32
2022-09-01T01:02:21.292Z,13.20
2022-09-01T01:05:59.290Z,13.16
2022-09-01T01:15:58.200Z,13.12
2022-09-01T01:19:59.010Z,13.00
2022-09-01T01:23:39.493Z,12.96
2022-09-01T01:40:35.754Z,12.94
2022-09-01T01:44:12.431Z,12.77
2022-09-01T01:48:01.990Z,12.71
2022-09-01T02:01:29.605Z,12.63
2022-09-01T02:05:05.511Z,12.52
2022-09-01T02:08:41.642Z,12.47
2022-09-01T02:29:04.760Z,12.56
2022-09-01T02:32:38.183Z,12.47
2022-09-01T02:36:14.600Z,12.47
2022-09-01T02:39:49.071Z,12.44
2022-09-01T02:43:14.540Z,12.35
2022-09-01T02:46:49.041Z,12.28
2022-09-01T02:50:23.080Z,12.25
2022-09-01T03:07:14.256Z,12.18
2022-09-01T03:10:50.570Z,12.07
2022-09-01T03:14:26.928Z,12.03
2022-09-01T03:18:01.340Z,11.99
2022-09-01T03:35:23.150Z,11.95
2022-09-01T03:38:57.370Z,11.84
2022-09-01T03:42:31.510Z,11.80
2022-09-01T03:46:05.660Z,11.80
2022-09-01T03:49:40.970Z,11.80
2022-09-01T03:53:16.410Z,11.74
2022-09-01T04:10:22.980Z,11.67
2022-09-01T04:13:56.773Z,11.64
2022-09-01T04:17:46.878Z,11.60
2022-09-01T04:21:14.461Z,11.58
2022-09-01T04:27:41.033Z,11.68
2022-09-01T04:31:15.262Z,11.64
2022-09-01T04:34:50.137Z,11.59
2022-09-01T04:38:23.801Z,11.62
2022-09-01T04:41:57.911Z,11.65
2022-09-01T04:55:25.246Z,11.91
2022-09-01T04:58:59.956Z,11.92
2022-09-01T05:23:02.375Z,12.87
2022-09-01T05:26:34.300Z,12.97
2022-09-01T05:30:08.518Z,13.08
2022-09-01T05:43:50.396Z,13.93
2022-09-01T05:47:21.549Z,14.25
2022-09-01T05:50:56.098Z,14.46
2022-09-01T05:54:28.860Z,14.60
2022-09-01T06:00:59.891Z,14.81
2022-09-01T06:04:33.440Z,14.88
2022-09-01T06:08:11.460Z,14.87
2022-09-01T06:21:44.561Z,15.40
2022-09-01T06:25:23.239Z,15.29
2022-09-01T06:29:00.651Z,15.26
2022-09-01T06:42:27.101Z,15.70
2022-09-01T06:46:03.007Z,15.89
2022-09-01T06:49:37.581Z,16.10
2022-09-01T07:10:29.448Z,17.45
2022-09-01T07:14:21.017Z,17.51
2022-09-01T07:17:57.031Z,17.49
2022-09-01T07:21:39.215Z,17.74
2022-09-01T07:25:18.221Z,17.85
2022-09-01T07:29:00.976Z,18.15
2022-09-01T07:54:37.879Z,19.56
2022-09-01T07:58:12.046Z,19.75
2022-09-01T08:01:45.920Z,19.90
2022-09-01T08:08:29.650Z,20.05
2022-09-01T08:12:03.711Z,20.30
2022-09-01T08:15:41.012Z,20.34
2022-09-01T08:19:34.760Z,20.30
2022-09-01T08:23:06.273Z,20.29
2022-09-01T08:26:40.621Z,20.43
2022-09-01T08:30:16.964Z,20.63
2022-09-01T08:33:52.652Z,20.65
2022-09-01T08:47:28.819Z,20.78
2022-09-01T08:51:17.122Z,20.69
2022-09-01T08:55:15.942Z,20.82
2022-09-01T08:58:50.630Z,20.86
2022-09-01T09:02:45.470Z,20.85
2022-09-01T09:06:28.266Z,20.86
2022-09-01T09:19:50.716Z,21.44
2022-09-01T09:23:31.628Z,21.06
2022-09-01T09:40:19.190Z,21.26
2022-09-01T09:43:59.743Z,21.33
2022-09-01T09:47:44.490Z,21.28
2022-09-01T09:51:23.761Z,21.41
2022-09-01T09:55:07.429Z,21.59
2022-09-01T09:58:41.992Z,21.64
2022-09-01T10:19:21.552Z,21.97
2022-09-01T10:22:53.556Z,22.00
2022-09-01T10:26:27.568Z,21.77
2022-09-01T10:30:20.317Z,21.83
2022-09-01T10:47:25.863Z,22.14
2022-09-01T10:51:38.269Z,22.24
2022-09-01T10:55:23.986Z,22.20
2022-09-01T11:03:42.091Z,22.15
2022-09-01T11:08:03.034Z,22.32
2022-09-01T11:21:28.544Z,21.96
2022-09-01T11:25:39.921Z,22.08
2022-09-01T11:33:43.466Z,22.12
2022-09-01T11:37:22.210Z,22.12
2022-09-01T11:41:08.649Z,22.25
2022-09-01T11:51:26.542Z,22.54
2022-09-01T11:55:01.032Z,22.46
2022-09-01T11:58:39.999Z,22.46
2022-09-01T12:02:23.574Z,22.56
2022-09-01T12:16:06.876Z,22.47
2022-09-01T12:19:39.000Z,22.08
2022-09-01T12:23:26.506Z,21.58
2022-09-01T12:27:05.483Z,21.59
2022-09-01T12:30:43.501Z,21.77
2022-09-01T12:44:35.451Z,21.63
2022-09-01T12:48:07.141Z,21.64
2022-09-01T12:51:37.995Z,21.98
2022-09-01T12:58:15.461Z,21.96
2022-09-01T13:01:51.030Z,21.91
2022-09-01T13:05:42.653Z,21.89
2022-09-01T13:09:22.320Z,21.77
2022-09-01T13:12:56.352Z,21.35
2022-09-01T13:16:30.332Z,21.37
2022-09-01T13:19:54.020Z,21.62
2022-09-01T13:23:27.766Z,21.64
2022-09-01T13:51:39.770Z,20.80
2022-09-01T13:55:16.490Z,20.35
2022-09-01T13:58:52.230Z,20.16
2022-09-01T14:29:32.641Z,20.90
2022-09-01T14:33:09.920Z,20.58
2022-09-01T14:36:45.998Z,20.41
2022-09-01T14:53:39.865Z,21.21
2022-09-01T14:57:37.798Z,21.01
2022-09-01T15:01:32.806Z,20.91
2022-09-01T15:14:58.761Z,20.65
2022-09-01T15:18:32.454Z,20.40
2022-09-01T15:22:07.973Z,20.28
2022-09-01T15:35:47.700Z,20.89
2022-09-01T15:39:18.403Z,21.01
2022-09-01T15:42:50.815Z,21.09
2022-09-01T15:53:24.601Z,20.75
2022-09-01T15:56:58.631Z,20.48
2022-09-01T16:00:33.396Z,20.22
2022-09-01T16:04:08.602Z,19.98
2022-09-01T16:07:41.709Z,19.79
2022-09-01T16:28:09.249Z,19.03
2022-09-01T16:31:45.131Z,18.75
2022-09-01T16:35:28.688Z,18.58
2022-09-01T16:42:08.161Z,18.45
2022-09-01T16:45:54.731Z,18.19
2022-09-01T16:49:35.011Z,18.03
2022-09-01T16:53:34.056Z,18.05
2022-09-01T17:13:51.781Z,17.68
2022-09-01T17:17:43.531Z,17.44
2022-09-01T17:21:22.693Z,17.39
2022-09-01T17:28:44.642Z,17.45
2022-09-01T17:32:35.161Z,17.43
2022-09-01T17:36:18.284Z,17.45
2022-09-01T17:40:01.573Z,17.44
2022-09-01T17:43:49.257Z,17.39
2022-09-01T17:57:24.589Z,17.26
2022-09-01T18:01:11.224Z,17.10
2022-09-01T18:05:01.800Z,17.02
2022-09-01T18:18:37.511Z,16.85
2022-09-01T18:22:23.219Z,16.70
2022-09-01T18:26:05.402Z,16.68
2022-09-01T18:43:31.869Z,16.61
2022-09-01T18:47:02.531Z,16.47
2022-09-01T18:50:43.745Z,16.41
2022-09-01T19:00:56.252Z,16.40
2022-09-01T19:04:40.105Z,16.24
2022-09-01T19:08:30.051Z,16.19
2022-09-01T19:12:19.402Z,16.10
2022-09-01T19:29:15.936Z,15.85
2022-09-01T19:32:50.631Z,15.63
2022-09-01T19:39:10.669Z,15.56
2022-09-01T19:42:51.591Z,15.42
2022-09-01T19:46:32.218Z,15.41
2022-09-01T20:03:19.534Z,15.55
2022-09-01T20:07:00.654Z,15.45
2022-09-01T20:10:56.587Z,15.38
2022-09-01T20:15:01.322Z,15.37
2022-09-01T20:18:39.572Z,15.32
2022-09-01T20:35:39.844Z,15.23
2022-09-01T20:39:35.470Z,15.02
2022-09-01T20:43:19.063Z,14.88
2022-09-01T21:00:28.958Z,14.51
2022-09-01T21:04:12.080Z,14.31
2022-09-01T21:08:08.901Z,14.08
2022-09-01T21:21:48.551Z,13.74
2022-09-01T21:25:22.386Z,13.59
2022-09-01T21:29:02.521Z,13.52
2022-09-01T21:42:22.850Z,13.60
2022-09-01T21:46:00.884Z,13.49
2022-09-01T21:49:35.534Z,13.36
2022-09-01T22:04:01.819Z,13.33
2022-09-01T22:07:35.609Z,13.29
2022-09-01T22:11:12.051Z,13.28
2022-09-01T22:24:37.120Z,13.38
2022-09-01T22:28:11.249Z,13.34
2022-09-01T22:31:39.800Z,13.32
2022-09-01T22:35:16.593Z,13.29
2022-09-01T22:52:22.148Z,13.29
2022-09-01T22:55:53.511Z,13.17
2022-09-01T22:59:24.792Z,13.10
2022-09-01T23:02:58.441Z,13.02
2022-09-01T23:16:16.050Z,12.88
2022-09-01T23:19:49.790Z,12.80
2022-09-01T23:23:23.580Z,12.78
2022-09-01T23:36:52.439Z,12.78
2022-09-01T23:40:25.903Z,12.66
2022-09-01T23:44:01.640Z,12.61
2022-09-01T23:47:36.321Z,12.53
2022-09-01T23:51:14.408Z,12.46
2022-09-01T23:54:49.350Z,12.36
2022-09-01T23:58:26.174Z,12.16
